Time,TemperatureF,DewpointF,PressureIn,WindDirection,WindDirectionDegrees,WindSpeedMPH,WindSpeedGustMPH,Humidity,HourlyPrecipIn,Conditions,Clouds,dailyrainin,SoftwareType,DateUTC
2013-09-04 00:15:00,58.8,54.6,29.82,West,265,8.0,11.0,86,0.00,,---,0.00,VWS V12.07,2013-09-04 04:15:00,
2013-09-04 00:25:00,58.8,55.0,29.81,WNW,286,7.0,11.0,87,0.00,,---,0.00,VWS V12.07,2013-09-04 04:25:00,
2013-09-04 00:34:00,59.3,54.8,29.81,West,272,9.0,12.0,85,0.00,,---,0.00,VWS V12.07,2013-09-04 04:34:00,
2013-09-04 00:46:00,59.4,54.9,29.82,West,260,6.0,10.0,85,0.00,,---,0.00,VWS V12.07,2013-09-04 04:46:00,
2013-09-04 00:56:00,59.2,54.7,29.82,West,277,1.0,10.0,85,0.00,,---,0.00,VWS V12.07,2013-09-04 04:56:00,
2013-09-04 01:06:00,59.2,55.0,29.81,West,270,5.0,7.0,86,0.00,,---,0.00,VWS V12.07,2013-09-04 05:06:00,
2013-09-04 01:16:00,59.3,55.1,29.81,WNW,283,5.0,8.0,86,0.00,,---,0.00,VWS V12.07,2013-09-04 05:16:00,
2013-09-04 01:26:00,59.4,55.2,29.81,WNW,282,5.0,9.0,86,0.00,,---,0.00,VWS V12.07,2013-09-04 05:26:00,
2013-09-04 01:36:00,59.5,55.3,29.81,West,281,5.0,11.0,86,0.00,,---,0.00,VWS V12.07,2013-09-04 05:36:00,
2013-09-04 01:46:00,59.3,55.1,29.80,West,276,11.0,11.0,86,0.00,,---,0.00,VWS V12.07,2013-09-04 05:46:00,
2013-09-04 01:56:00,59.1,55.2,29.80,West,273,9.0,12.0,87,0.00,,---,0.00,VWS V12.07,2013-09-04 05:56:00,
2013-09-04 02:06:00,58.9,55.0,29.81,West,266,6.0,10.0,87,0.00,,---,0.00,VWS V12.07,2013-09-04 06:06:00,
2013-09-04 02:16:00,58.8,55.3,29.81,West,280,3.0,6.0,88,0.00,,---,0.00,VWS V12.07,2013-09-04 06:16:00,
2013-09-04 02:26:00,58.7,55.2,29.81,WNW,302,4.0,8.0,88,0.00,,---,0.00,VWS V12.07,2013-09-04 06:26:00,
2013-09-04 02:36:00,58.9,55.4,29.81,NW,317,3.0,7.0,88,0.00,,---,0.00,VWS V12.07,2013-09-04 06:36:00,
2013-09-04 02:46:00,59.4,55.5,29.81,West,275,3.0,6.0,87,0.00,,---,0.00,VWS V12.07,2013-09-04 06:46:00,
2013-09-04 02:55:00,59.5,55.6,29.81,West,281,5.0,10.0,87,0.00,,---,0.00,VWS V12.07,2013-09-04 06:55:00,
2013-09-04 03:05:00,59.7,55.8,29.81,West,271,6.0,9.0,87,0.00,,---,0.00,VWS V12.07,2013-09-04 07:05:00,
2013-09-04 03:15:00,60.0,55.8,29.81,West,271,5.0,14.0,86,0.00,,---,0.00,VWS V12.07,2013-09-04 07:15:00,
2013-09-04 03:25:00,59.8,55.9,29.81,West,278,6.0,9.0,87,0.00,,---,0.00,VWS V12.07,2013-09-04 07:25:00,
2013-09-04 03:32:00,59.6,55.7,29.82,West,270,5.0,7.0,87,0.00,,---,0.00,VWS V12.07,2013-09-04 07:32:00,
2013-09-04 03:45:00,59.1,55.5,29.81,West,262,6.0,15.0,88,0.00,,---,0.00,VWS V12.07,2013-09-04 07:45:00,
2013-09-04 03:55:00,58.8,55.6,29.81,WSW,246,5.0,8.0,89,0.00,,---,0.00,VWS V12.07,2013-09-04 07:55:00,
2013-09-04 04:05:00,58.8,55.6,29.82,West,279,6.0,9.0,89,0.00,,---,0.00,VWS V12.07,2013-09-04 08:05:00,
2013-09-04 04:15:00,58.9,55.7,29.82,West,279,5.0,9.0,89,0.00,,---,0.00,VWS V12.07,2013-09-04 08:15:00,
2013-09-04 04:25:00,59.2,56.0,29.83,NNW,337,9.0,11.0,89,0.00,,---,0.00,VWS V12.07,2013-09-04 08:25:00,
2013-09-04 04:35:00,59.3,55.8,29.83,West,277,8.0,13.0,88,0.00,,---,0.00,VWS V12.07,2013-09-04 08:35:00,
2013-09-04 04:45:00,59.3,55.8,29.84,North,351,6.0,13.0,88,0.00,,---,0.00,VWS V12.07,2013-09-04 08:45:00,
2013-09-04 04:55:00,58.9,56.0,29.84,NW,313,3.0,11.0,90,0.00,,---,0.00,VWS V12.07,2013-09-04 08:55:00,
2013-09-04 05:05:00,58.9,55.7,29.84,NNW,329,4.0,7.0,89,0.00,,---,0.00,VWS V12.07,2013-09-04 09:05:00,
2013-09-04 05:16:00,58.9,55.7,29.84,NNW,328,5.0,6.0,89,0.00,,---,0.00,VWS V12.07,2013-09-04 09:16:00,
2013-09-04 05:26:00,58.8,55.6,29.84,West,268,9.0,11.0,89,0.00,,---,0.00,VWS V12.07,2013-09-04 09:26:00,
2013-09-04 05:36:00,59.2,56.0,29.84,NW,306,4.0,12.0,89,0.00,,---,0.00,VWS V12.07,2013-09-04 09:36:00,
2013-09-04 05:46:00,59.1,55.9,29.85,NNW,329,4.0,11.0,89,0.00,,---,0.00,VWS V12.07,2013-09-04 09:46:00,
2013-09-04 05:56:00,59.2,56.0,29.85,NNW,330,5.0,12.0,89,0.00,,---,0.00,VWS V12.07,2013-09-04 09:56:00,
2013-09-04 06:06:00,59.2,56.0,29.86,West,277,7.0,9.0,89,0.00,,---,0.00,VWS V12.07,2013-09-04 10:06:00,
2013-09-04 06:16:00,59.1,55.9,29.87,West,272,4.0,5.0,89,0.00,,---,0.00,VWS V12.07,2013-09-04 10:16:00,
2013-09-04 06:26:00,58.8,55.6,29.87,NW,323,3.0,6.0,89,0.00,,---,0.00,VWS V12.07,2013-09-04 10:26:00,
2013-09-04 06:36:00,58.8,55.3,29.87,North,5,8.0,10.0,88,0.00,,---,0.00,VWS V12.07,2013-09-04 10:36:00,
2013-09-04 06:46:00,59.2,55.3,29.87,North,349,2.0,7.0,87,0.00,,---,0.00,VWS V12.07,2013-09-04 10:46:00,
2013-09-04 06:56:00,59.7,55.5,29.87,West,265,4.0,7.0,86,0.00,,---,0.00,VWS V12.07,2013-09-04 10:56:00,
2013-09-04 07:06:00,60.1,55.6,29.87,WNW,282,2.0,9.0,85,0.00,,---,0.00,VWS V12.07,2013-09-04 11:06:00,
2013-09-04 07:16:00,60.4,55.9,29.88,NNW,333,4.0,6.0,85,0.00,,---,0.00,VWS V12.07,2013-09-04 11:16:00,
2013-09-04 07:26:00,61.1,55.9,29.88,West,277,2.0,6.0,83,0.00,,---,0.00,VWS V12.07,2013-09-04 11:26:00,
2013-09-04 07:36:00,61.7,56.2,29.87,WNW,297,1.0,4.0,82,0.00,,---,0.00,VWS V12.07,2013-09-04 11:36:00,
2013-09-04 07:46:00,62.5,56.2,29.87,NNW,346,1.0,2.0,80,0.00,,---,0.00,VWS V12.07,2013-09-04 11:46:00,
2013-09-04 07:56:00,62.5,56.2,29.87,West,273,3.0,5.0,80,0.00,,---,0.00,VWS V12.07,2013-09-04 11:56:00,
2013-09-04 08:16:00,62.7,55.8,29.88,NW,316,8.0,8.0,78,0.00,,---,0.00,VWS V12.07,2013-09-04 12:16:00,
2013-09-04 08:26:00,63.1,55.4,29.88,WNW,295,6.0,9.0,76,0.00,,---,0.00,VWS V12.07,2013-09-04 12:26:00,
2013-09-04 08:36:00,63.5,55.4,29.88,WNW,292,6.0,8.0,75,0.00,,---,0.00,VWS V12.07,2013-09-04 12:36:00,
2013-09-04 08:47:00,63.6,55.5,29.89,WNW,294,4.0,5.0,75,0.00,,---,0.00,VWS V12.07,2013-09-04 12:47:00,
2013-09-04 08:56:00,63.6,56.3,29.89,West,269,3.0,10.0,77,0.00,,---,0.00,VWS V12.07,2013-09-04 12:56:00,
2013-09-04 09:06:00,64.0,55.9,29.89,WNW,301,3.0,8.0,75,0.00,,---,0.00,VWS V12.07,2013-09-04 13:06:00,
2013-09-04 09:16:00,64.6,56.1,29.89,SW,227,2.0,4.0,74,0.00,,---,0.00,VWS V12.07,2013-09-04 13:16:00,
2013-09-04 09:26:00,65.0,56.2,29.89,SSW,197,1.0,6.0,73,0.00,,---,0.00,VWS V12.07,2013-09-04 13:26:00,
2013-09-04 09:36:00,65.4,56.2,29.89,West,259,4.0,5.0,72,0.00,,---,0.00,VWS V12.07,2013-09-04 13:36:00,
2013-09-04 09:46:00,66.0,56.0,29.89,West,261,8.0,9.0,70,0.00,,---,0.00,VWS V12.07,2013-09-04 13:46:00,
2013-09-04 09:56:00,65.9,56.6,29.89,WSW,252,4.0,9.0,72,0.00,,---,0.00,VWS V12.07,2013-09-04 13:56:00,
2013-09-04 10:06:00,66.3,56.2,29.89,SW,217,6.0,9.0,70,0.00,,---,0.00,VWS V12.07,2013-09-04 14:06:00,
2013-09-04 10:16:00,66.2,56.9,29.89,SSW,197,6.0,6.0,72,0.00,,---,0.00,VWS V12.07,2013-09-04 14:16:00,
2013-09-04 10:26:00,66.8,57.1,29.89,South,182,2.0,11.0,71,0.00,,---,0.00,VWS V12.07,2013-09-04 14:26:00,
2013-09-04 10:37:00,67.6,55.8,29.89,WSW,252,4.0,8.0,66,0.00,,---,0.00,VWS V12.07,2013-09-04 14:37:00,
2013-09-04 10:46:00,68.4,57.8,29.89,WSW,241,7.0,7.0,69,0.00,,---,0.00,VWS V12.07,2013-09-04 14:46:00,
2013-09-04 10:56:00,68.2,55.6,29.89,West,259,5.0,10.0,64,0.00,,---,0.00,VWS V12.07,2013-09-04 14:56:00,
2013-09-04 11:06:00,68.7,52.9,29.89,WSW,249,3.0,12.0,57,0.00,,---,0.00,VWS V12.07,2013-09-04 15:06:00,
2013-09-04 11:16:00,70.2,52.8,29.89,West,281,7.0,7.0,54,0.00,,---,0.00,VWS V12.07,2013-09-04 15:16:00,
2013-09-04 11:26:00,70.3,55.8,29.89,SSW,209,9.0,11.0,60,0.00,,---,0.00,VWS V12.07,2013-09-04 15:26:00,
2013-09-04 11:36:00,69.9,54.9,29.89,West,271,6.0,9.0,59,0.00,,---,0.00,VWS V12.07,2013-09-04 15:36:00,
2013-09-04 11:46:00,70.2,55.7,29.89,WSW,254,5.0,8.0,60,0.00,,---,0.00,VWS V12.07,2013-09-04 15:46:00,
2013-09-04 11:56:00,70.7,52.2,29.89,NNE,14,6.0,12.0,52,0.00,,---,0.00,VWS V12.07,2013-09-04 15:56:00,
2013-09-04 12:06:00,71.3,52.8,29.89,West,281,10.0,10.0,52,0.00,,---,0.00,VWS V12.07,2013-09-04 16:06:00,
2013-09-04 12:16:00,71.5,53.0,29.88,WSW,256,7.0,14.0,52,0.00,,---,0.00,VWS V12.07,2013-09-04 16:16:00,
2013-09-04 12:26:00,70.9,54.0,29.88,West,262,9.0,14.0,55,0.00,,---,0.00,VWS V12.07,2013-09-04 16:26:00,
2013-09-04 12:36:00,70.9,54.4,29.88,WSW,244,8.0,10.0,56,0.00,,---,0.00,VWS V12.07,2013-09-04 16:36:00,
2013-09-04 12:55:00,71.8,55.8,29.88,West,275,7.0,12.0,57,0.00,,---,0.00,VWS V12.07,2013-09-04 16:55:00,
2013-09-04 13:05:00,71.9,54.9,29.88,WSW,257,12.0,12.0,55,0.00,,---,0.00,VWS V12.07,2013-09-04 17:05:00,
2013-09-04 13:15:00,72.5,53.9,29.88,NNW,331,7.0,14.0,52,0.00,,---,0.00,VWS V12.07,2013-09-04 17:15:00,
2013-09-04 13:25:00,74.1,54.3,29.88,NNE,13,5.0,12.0,50,0.00,,---,0.00,VWS V12.07,2013-09-04 17:25:00,
2013-09-04 13:35:00,74.6,54.8,29.88,WNW,292,5.0,9.0,50,0.00,,---,0.00,VWS V12.07,2013-09-04 17:35:00,
2013-09-04 13:45:00,74.5,56.8,29.87,West,277,7.0,12.0,54,0.00,,---,0.00,VWS V12.07,2013-09-04 17:45:00,
2013-09-04 13:55:00,73.4,55.8,29.87,WSW,257,9.0,12.0,54,0.00,,---,0.00,VWS V12.07,2013-09-04 17:55:00,
2013-09-04 14:05:00,73.2,56.1,29.87,West,274,7.0,14.0,55,0.00,,---,0.00,VWS V12.07,2013-09-04 18:05:00,
2013-09-04 14:15:00,73.1,55.5,29.87,WSW,257,6.0,14.0,54,0.00,,---,0.00,VWS V12.07,2013-09-04 18:15:00,
2013-09-04 14:25:00,73.0,54.9,29.87,WSW,251,11.0,14.0,53,0.00,,---,0.00,VWS V12.07,2013-09-04 18:25:00,
2013-09-04 14:35:00,73.2,55.6,29.87,WNW,297,10.0,14.0,54,0.00,,---,0.00,VWS V12.07,2013-09-04 18:35:00,
2013-09-04 14:45:00,73.5,57.3,29.87,North,355,5.0,14.0,57,0.00,,---,0.00,VWS V12.07,2013-09-04 18:45:00,
2013-09-04 14:55:00,73.9,55.7,29.87,NNW,335,3.0,13.0,53,0.00,,---,0.00,VWS V12.07,2013-09-04 18:55:00,
2013-09-04 15:05:00,73.7,56.5,29.87,NNW,330,3.0,19.0,55,0.00,,---,0.00,VWS V12.07,2013-09-04 19:05:00,
2013-09-04 15:15:00,73.9,56.7,29.88,NW,311,8.0,19.0,55,0.00,,---,0.00,VWS V12.07,2013-09-04 19:15:00,
2013-09-04 15:25:00,73.6,56.0,29.88,NNE,12,4.0,12.0,54,0.00,,---,0.00,VWS V12.07,2013-09-04 19:25:00,
2013-09-04 15:36:00,73.6,55.4,29.87,NW,320,9.0,10.0,53,0.00,,---,0.00,VWS V12.07,2013-09-04 19:36:00,
2013-09-04 15:46:00,73.5,55.3,29.87,West,271,8.0,8.0,53,0.00,,---,0.00,VWS V12.07,2013-09-04 19:46:00,
2013-09-04 15:56:00,73.4,56.3,29.87,WNW,282,6.0,10.0,55,0.00,,---,0.00,VWS V12.07,2013-09-04 19:56:00,
2013-09-04 16:06:00,73.0,57.8,29.87,WSW,242,7.0,11.0,59,0.00,,---,0.00,VWS V12.07,2013-09-04 20:06:00,
2013-09-04 16:16:00,72.6,55.5,29.87,WSW,242,9.0,9.0,55,0.00,,---,0.00,VWS V12.07,2013-09-04 20:16:00,
2013-09-04 16:26:00,72.7,56.1,29.87,West,276,5.0,13.0,56,0.00,,---,0.00,VWS V12.07,2013-09-04 20:26:00,
2013-09-04 16:36:00,72.8,56.7,29.87,West,270,12.0,14.0,57,0.00,,---,0.00,VWS V12.07,2013-09-04 20:36:00,
2013-09-04 16:46:00,71.9,55.9,29.87,WSW,246,13.0,13.0,57,0.00,,---,0.00,VWS V12.07,2013-09-04 20:46:00,
2013-09-04 16:56:00,72.0,57.4,29.87,WSW,257,8.0,13.0,60,0.00,,---,0.00,VWS V12.07,2013-09-04 20:56:00,
2013-09-04 17:07:00,72.3,55.7,29.87,WSW,253,6.0,14.0,56,0.00,,---,0.00,VWS V12.07,2013-09-04 21:07:00,
2013-09-04 17:15:00,72.8,56.7,29.87,WSW,254,11.0,14.0,57,0.00,,---,0.00,VWS V12.07,2013-09-04 21:15:00,
2013-09-04 17:25:00,72.2,56.6,29.87,West,263,11.0,12.0,58,0.00,,---,0.00,VWS V12.07,2013-09-04 21:25:00,
2013-09-04 17:35:00,71.5,57.4,29.87,West,267,5.0,10.0,61,0.00,,---,0.00,VWS V12.07,2013-09-04 21:35:00,
2013-09-04 17:45:00,70.5,56.4,29.87,WSW,248,8.0,14.0,61,0.00,,---,0.00,VWS V12.07,2013-09-04 21:45:00,
2013-09-04 17:55:00,70.6,56.5,29.87,WSW,257,7.0,12.0,61,0.00,,---,0.00,VWS V12.07,2013-09-04 21:55:00,
2013-09-04 18:05:00,70.1,55.6,29.87,WSW,258,11.0,15.0,60,0.00,,---,0.00,VWS V12.07,2013-09-04 22:05:00,
2013-09-04 18:15:00,69.8,55.8,29.87,West,277,5.0,16.0,61,0.00,,---,0.00,VWS V12.07,2013-09-04 22:15:00,
2013-09-04 18:23:00,69.3,55.7,29.87,SW,233,7.0,12.0,62,0.00,,---,0.00,VWS V12.07,2013-09-04 22:23:00,
2013-09-04 18:35:00,68.8,55.7,29.87,West,263,8.0,10.0,63,0.00,,---,0.00,VWS V12.07,2013-09-04 22:35:00,
2013-09-04 18:45:00,68.4,54.4,29.88,West,269,8.0,12.0,61,0.00,,---,0.00,VWS V12.07,2013-09-04 22:45:00,
2013-09-04 18:55:00,68.5,54.1,29.88,WSW,257,4.0,11.0,60,0.00,,---,0.00,VWS V12.07,2013-09-04 22:55:00,
2013-09-04 19:06:00,67.9,53.1,29.88,West,268,5.0,8.0,59,0.00,,---,0.00,VWS V12.07,2013-09-04 23:06:00,
2013-09-04 19:25:00,66.8,53.4,29.89,SSW,205,6.0,10.0,62,0.00,,---,0.00,VWS V12.07,2013-09-04 23:25:00,
2013-09-04 19:35:00,66.1,53.2,29.88,SW,233,7.0,8.0,63,0.00,,---,0.00,VWS V12.07,2013-09-04 23:35:00,
2013-09-04 19:45:00,65.6,51.8,29.89,West,273,10.0,12.0,61,0.00,,---,0.00,VWS V12.07,2013-09-04 23:45:00,
2013-09-04 19:55:00,65.7,51.5,29.89,WSW,245,9.0,10.0,60,0.00,,---,0.00,VWS V12.07,2013-09-04 23:55:00,
2013-09-04 20:05:00,65.7,51.0,29.89,WSW,240,7.0,9.0,59,0.00,,---,0.00,VWS V12.07,2013-09-05 00:05:00,
2013-09-04 20:15:00,65.8,50.6,29.89,WSW,244,5.0,9.0,58,0.00,,---,0.00,VWS V12.07,2013-09-05 00:15:00,
2013-09-04 20:25:00,65.7,50.1,29.89,WSW,242,6.0,7.0,57,0.00,,---,0.00,VWS V12.07,2013-09-05 00:25:00,
2013-09-04 20:35:00,65.9,50.2,29.89,WSW,252,2.0,15.0,57,0.00,,---,0.00,VWS V12.07,2013-09-05 00:35:00,
2013-09-04 20:45:00,65.6,50.0,29.90,West,271,5.0,15.0,57,0.00,,---,0.00,VWS V12.07,2013-09-05 00:45:00,
2013-09-04 20:55:00,65.3,49.7,29.90,WNW,293,4.0,7.0,57,0.00,,---,0.00,VWS V12.07,2013-09-05 00:55:00,
2013-09-04 21:05:00,65.3,50.2,29.90,West,265,7.0,8.0,58,0.00,,---,0.00,VWS V12.07,2013-09-05 01:05:00,
2013-09-04 21:11:00,65.4,50.2,29.90,West,277,4.0,8.0,58,0.00,,---,0.00,VWS V12.07,2013-09-05 01:11:00,
2013-09-04 21:25:00,65.2,50.1,29.90,West,271,5.0,8.0,58,0.00,,---,0.00,VWS V12.07,2013-09-05 01:25:00,
2013-09-04 21:35:00,64.6,50.4,29.90,WSW,257,5.0,8.0,60,0.00,,---,0.00,VWS V12.07,2013-09-05 01:35:00,
2013-09-04 21:45:00,64.6,50.9,29.91,WSW,258,4.0,9.0,61,0.00,,---,0.00,VWS V12.07,2013-09-05 01:45:00,
2013-09-04 21:55:00,64.5,50.8,29.91,West,264,4.0,8.0,61,0.00,,---,0.00,VWS V12.07,2013-09-05 01:55:00,
2013-09-04 22:05:00,64.3,51.0,29.91,WSW,251,4.0,8.0,62,0.00,,---,0.00,VWS V12.07,2013-09-05 02:05:00,
2013-09-04 22:15:00,64.4,51.1,29.91,SW,225,6.0,9.0,62,0.00,,---,0.00,VWS V12.07,2013-09-05 02:15:00,
2013-09-04 22:26:00,64.0,51.2,29.91,SW,228,5.0,6.0,63,0.00,,---,0.00,VWS V12.07,2013-09-05 02:26:00,
2013-09-04 22:36:00,63.1,51.2,29.91,SW,225,5.0,5.0,65,0.00,,---,0.00,VWS V12.07,2013-09-05 02:36:00,
2013-09-04 22:46:00,62.6,51.5,29.90,SSW,209,4.0,5.0,67,0.00,,---,0.00,VWS V12.07,2013-09-05 02:46:00,
2013-09-04 22:56:00,62.0,51.3,29.90,SSW,205,6.0,7.0,68,0.00,,---,0.00,VWS V12.07,2013-09-05 02:56:00,
2013-09-04 23:06:00,61.8,51.1,29.89,WSW,243,3.0,7.0,68,0.00,,---,0.00,VWS V12.07,2013-09-05 03:06:00,
2013-09-04 23:16:00,61.9,51.2,29.89,SSW,205,4.0,5.0,68,0.00,,---,0.00,VWS V12.07,2013-09-05 03:16:00,
2013-09-04 23:26:00,61.6,51.3,29.89,SSW,196,5.0,6.0,69,0.00,,---,0.00,VWS V12.07,2013-09-05 03:26:00,
2013-09-04 23:36:00,61.8,51.1,29.89,SSW,201,4.0,5.0,68,0.00,,---,0.00,VWS V12.07,2013-09-05 03:36:00,
2013-09-04 23:46:00,61.7,51.4,29.89,SSW,200,4.0,5.0,69,0.00,,---,0.00,VWS V12.07,2013-09-05 03:46:00,
2013-09-04 23:56:00,61.6,51.7,29.89,South,178,4.0,5.0,70,0.00,,---,0.00,VWS V12.07,2013-09-05 03:56:00,